Time;durP1;ratioP1;P1;durP2;ratioP2;P2;SDS_P1;SDS_P2;PMS_P1;PMS_P2;Temp;Humidity;BMP_temperature;BMP_pressure;BME280_temperature;BME280_humidity;BME280_pressure;Samples;Min_cycle;Max_cycle;Signal;HPM_P1;HPM_P2
2021/06/29 00:01:59;;;;;;;7.13;4.75;;;;;;;23.04;59.86;101386.97;4832135;29;20033;-90
2021/06/29 00:04:27;;;;;;;6.90;5.30;;;;;;;23.04;59.89;101393.09;4832147;29;20040;-89
2021/06/29 00:06:52;;;;;;;10.68;5.10;;;;;;;23.06;60.15;101398.31;4847126;29;20105;-92
2021/06/29 00:09:17;;;;;;;8.07;4.65;;;;;;;23.05;59.78;101394.81;4847254;29;20029;-90
2021/06/29 00:11:46;;;;;;;7.13;4.97;;;;;;;23.06;59.99;101395.69;4847066;29;20106;-89
2021/06/29 00:18:11;;;;;;;7.00;4.35;;;;;;;23.07;59.69;101390.41;4862069;29;20120;-90
2021/06/29 00:20:36;;;;;;;6.60;4.67;;;;;;;23.04;59.83;101382.63;4825865;29;20129;-89
2021/06/29 00:23:03;;;;;;;6.30;5.03;;;;;;;23.02;60.04;101379.16;4825143;29;20117;-90
2021/06/29 00:25:29;;;;;;;6.55;4.88;;;;;;;23.06;59.73;101387.81;4825444;29;20129;-88
2021/06/29 00:27:54;;;;;;;6.63;4.93;;;;;;;23.05;59.87;101381.69;4810769;29;20463;-90
2021/06/29 00:30:20;;;;;;;7.70;4.65;;;;;;;23.07;59.98;101386.91;4825248;29;20079;-91
2021/06/29 00:32:46;;;;;;;8.30;4.90;;;;;;;23.05;59.72;101380.84;4825523;29;20069;-89
2021/06/29 00:35:12;;;;;;;8.10;5.18;;;;;;;23.04;59.93;101373.84;4825198;29;20030;-89
2021/06/29 00:37:38;;;;;;;7.20;5.07;;;;;;;23.02;59.73;101368.66;4840165;29;20087;-90
2021/06/29 00:40:06;;;;;;;7.38;4.50;;;;;;;23.02;60.11;101366.03;4825005;29;20403;-90
2021/06/29 00:42:31;;;;;;;6.93;5.05;;;;;;;22.99;59.60;101364.31;4824983;29;20534;-89
2021/06/29 00:44:56;;;;;;;7.13;5.30;;;;;;;23.02;59.60;101366.03;4824877;29;20046;-90
2021/06/29 00:47:22;;;;;;;7.50;4.82;;;;;;;23.03;59.50;101370.38;4825037;29;20030;-89
2021/06/29 00:49:47;;;;;;;8.23;4.82;;;;;;;23.03;59.44;101375.63;4825094;29;20057;-91
2021/06/29 00:52:14;;;;;;;6.40;4.70;;;;;;;23.02;59.56;101373.03;4825215;29;20030;-90
2021/06/29 00:54:40;;;;;;;7.07;4.75;;;;;;;22.99;59.40;101363.44;4809840;29;20082;-91
2021/06/29 00:57:10;;;;;;;10.85;4.90;;;;;;;23.00;59.27;101358.19;4809822;29;20035;-89
2021/06/29 00:59:41;;;;;;;7.35;4.78;;;;;;;22.99;59.38;101356.44;4824913;29;20038;-90
2021/06/29 01:02:08;;;;;;;8.70;5.18;;;;;;;22.98;59.08;101351.22;4824748;29;20098;-90
2021/06/29 01:04:34;;;;;;;8.38;4.78;;;;;;;22.97;59.42;101355.63;4825296;29;20423;-89
2021/06/29 01:07:00;;;;;;;7.10;4.75;;;;;;;22.95;59.03;101346.03;4824800;29;20034;-89
2021/06/29 01:09:25;;;;;;;8.60;5.25;;;;;;;22.95;59.20;101340.78;4794926;29;20517;-89
2021/06/29 01:11:50;;;;;;;7.57;5.22;;;;;;;22.94;59.20;101344.31;4825685;29;20034;-88
2021/06/29 01:14:17;;;;;;;6.78;4.90;;;;;;;22.97;59.20;101349.47;4832533;29;20026;-90
2021/06/29 01:16:44;;;;;;;9.68;4.97;;;;;;;22.94;59.09;101345.16;4842424;29;20056;-91
2021/06/29 01:19:11;;;;;;;6.75;4.57;;;;;;;22.96;58.88;101332.03;4850232;29;20074;-90
2021/06/29 01:21:39;;;;;;;7.78;4.90;;;;;;;22.97;59.21;101332.00;4847045;29;20077;-92
2021/06/29 01:24:12;;;;;;;6.20;4.55;;;;;;;22.98;59.15;101335.47;4843460;29;20036;-90
2021/06/29 01:26:43;;;;;;;9.95;5.28;;;;;;;22.94;58.65;101329.44;4843013;29;20072;-89
2021/06/29 01:29:09;;;;;;;9.20;4.90;;;;;;;22.93;58.95;101327.72;4842354;29;20035;-89
2021/06/29 01:35:15;;;;;;;7.13;4.93;;;;;;;22.98;59.08;101327.59;4844126;29;20083;-92
2021/06/29 01:37:40;;;;;;;7.38;4.82;;;;;;;22.96;59.05;101316.28;4842234;29;20038;-90
2021/06/29 01:40:26;;;;;;;7.22;4.72;;;;;;;22.96;59.01;101318.91;4842174;29;20478;-89
2021/06/29 01:42:56;;;;;;;7.15;5.00;;;;;;;22.95;58.82;101318.03;4829742;29;20037;-89
2021/06/29 01:45:21;;;;;;;5.40;4.68;;;;;;;22.95;58.94;101319.78;4842450;29;20034;-91
2021/06/29 01:50:17;;;;;;;7.50;4.60;;;;;;;22.94;58.80;101329.44;4843587;29;20045;-90
2021/06/29 01:52:43;;;;;;;6.53;4.55;;;;;;;22.96;58.77;101329.41;4845754;29;20082;-90
2021/06/29 01:55:09;;;;;;;7.40;5.00;;;;;;;22.93;59.02;101330.34;4847132;29;20094;-91
2021/06/29 01:57:38;;;;;;;5.50;4.68;;;;;;;22.93;59.05;101329.44;4842955;29;20494;-92
2021/06/29 02:00:11;;;;;;;6.35;4.63;;;;;;;22.93;58.59;101332.97;4842616;29;20082;-91
2021/06/29 02:02:36;;;;;;;7.95;4.85;;;;;;;22.93;58.53;101332.06;4843833;29;20037;-90
2021/06/29 02:05:03;;;;;;;5.78;4.63;;;;;;;22.94;58.75;101323.31;4842334;29;20394;-90
2021/06/29 02:07:28;;;;;;;6.47;4.50;;;;;;;22.94;58.86;101324.19;4842286;29;20030;-88
2021/06/29 02:09:54;;;;;;;6.80;4.57;;;;;;;22.93;58.67;101321.56;4841943;29;20447;-90
2021/06/29 02:12:19;;;;;;;6.13;4.07;;;;;;;22.93;58.83;101321.56;4826791;29;20446;-90
2021/06/29 02:14:45;;;;;;;7.65;4.60;;;;;;;22.92;58.78;101325.13;4842071;29;20541;-89
2021/06/29 02:17:10;;;;;;;8.55;4.47;;;;;;;22.94;58.94;101336.44;4842004;29;20041;-92
2021/06/29 02:19:36;;;;;;;5.60;4.30;;;;;;;22.92;58.38;101325.97;4842015;29;20436;-90
2021/06/29 02:22:04;;;;;;;6.47;4.53;;;;;;;22.93;58.55;101317.22;4843314;29;20034;-89
2021/06/29 02:24:29;;;;;;;6.07;4.60;;;;;;;22.91;58.24;101300.66;4842001;29;20061;-92
2021/06/29 02:26:55;;;;;;;7.88;4.40;;;;;;;22.93;58.42;101306.72;4827295;29;20075;-92
2021/06/29 02:29:20;;;;;;;7.65;4.40;;;;;;;22.90;58.57;101304.16;4844176;29;20034;-90
2021/06/29 02:31:46;;;;;;;7.18;4.45;;;;;;;22.92;58.35;101306.75;4844838;29;20097;-93
2021/06/29 02:34:11;;;;;;;5.90;4.00;;;;;;;22.91;58.31;101305.91;4847766;29;20050;-93
2021/06/29 02:36:37;;;;;;;8.65;4.57;;;;;;;22.91;58.60;101299.78;4849035;29;20026;-90
2021/06/29 02:39:04;;;;;;;5.72;4.40;;;;;;;22.91;58.27;101310.28;4846062;29;20139;-91
2021/06/29 02:41:29;;;;;;;6.32;4.43;;;;;;;22.92;58.45;101301.50;4843092;29;20053;-90
2021/06/29 02:43:54;;;;;;;6.28;4.55;;;;;;;22.89;58.58;101291.09;4812819;29;20386;-90
2021/06/29 02:46:20;;;;;;;7.60;4.70;;;;;;;22.91;58.20;101297.16;4843060;29;20022;-92
2021/06/29 02:48:46;;;;;;;9.30;4.82;;;;;;;22.91;58.29;101297.16;4842616;29;20034;-88
2021/06/29 02:51:12;;;;;;;6.28;4.40;;;;;;;22.91;58.28;101297.16;4842366;29;20053;-89
2021/06/29 02:53:38;;;;;;;5.80;4.32;;;;;;;22.90;58.53;101295.41;4827082;29;20033;-91
2021/06/29 02:56:04;;;;;;;6.78;4.53;;;;;;;22.90;58.37;101288.41;4841541;29;20022;-90
2021/06/29 02:58:29;;;;;;;7.40;4.68;;;;;;;22.91;58.43;101286.66;4843110;29;20085;-90
2021/06/29 03:00:55;;;;;;;7.78;4.63;;;;;;;22.91;58.33;101284.91;4841748;29;20072;-90
2021/06/29 03:03:20;;;;;;;6.90;4.45;;;;;;;22.90;58.08;101274.44;4827175;29;20083;-90
2021/06/29 03:05:45;;;;;;;6.57;4.75;;;;;;;22.90;57.93;101269.19;4841920;29;20034;-90
2021/06/29 03:08:11;;;;;;;8.45;4.40;;;;;;;22.90;58.21;101277.06;4841626;29;20034;-89
2021/06/29 03:10:36;;;;;;;7.80;4.28;;;;;;;22.89;58.27;101276.19;4844060;29;20190;-89
2021/06/29 03:13:02;;;;;;;7.85;3.90;;;;;;;22.89;58.02;101270.09;4845127;29;20137;-89
2021/06/29 03:15:28;;;;;;;6.47;4.28;;;;;;;22.88;57.83;101263.97;4829733;29;20124;-89
2021/06/29 03:17:53;;;;;;;8.57;5.10;;;;;;;22.88;57.83;101268.34;4844779;29;20025;-90
2021/06/29 03:20:19;;;;;;;7.88;4.40;;;;;;;22.87;57.87;101267.50;4845072;29;20072;-91
2021/06/29 03:22:45;;;;;;;7.07;4.53;;;;;;;22.88;58.08;101278.84;4844888;29;20474;-90
2021/06/29 03:25:11;;;;;;;8.20;4.95;;;;;;;22.86;57.61;101281.50;4844858;29;20041;-90
2021/06/29 03:27:36;;;;;;;6.68;4.65;;;;;;;22.87;57.48;101280.63;4844894;29;20030;-90
2021/06/29 03:30:07;;;;;;;7.80;4.60;;;;;;;22.86;57.87;101273.63;4845532;29;20022;-90
2021/06/29 03:32:33;;;;;;;7.63;4.40;;;;;;;22.86;57.74;101262.28;4845158;29;20026;-90
2021/06/29 03:34:58;;;;;;;5.70;4.35;;;;;;;22.86;57.69;101268.38;4844715;29;20389;-89
2021/06/29 03:37:24;;;;;;;6.28;4.45;;;;;;;22.88;57.95;101270.97;4831169;29;20049;-89
2021/06/29 03:39:49;;;;;;;9.32;4.60;;;;;;;22.88;57.73;101271.84;4852002;29;20022;-89
2021/06/29 03:42:15;;;;;;;6.80;4.30;;;;;;;22.88;57.66;101273.59;4850160;29;20061;-89
2021/06/29 03:44:40;;;;;;;7.55;4.57;;;;;;;22.89;57.59;101270.09;4852306;29;20030;-91
2021/06/29 04:53:42;;;;;;;9.05;4.78;;;;;;;22.79;57.96;101251.94;4872912;29;20939;-90
2021/06/29 04:56:19;;;;;;;7.80;4.65;;;;;;;22.72;57.64;101254.75;4833002;29;20049;-90
2021/06/29 04:58:53;;;;;;;9.90;5.30;;;;;;;22.68;57.82;101259.22;4846868;29;20048;-91
2021/06/29 05:01:22;;;;;;;7.63;4.53;;;;;;;22.65;57.53;101261.91;4847509;29;20033;-90
2021/06/29 05:03:48;;;;;;;15.30;5.50;;;;;;;22.57;57.39;101261.22;4831811;29;20064;-91
2021/06/29 05:06:15;;;;;;;10.50;4.95;;;;;;;22.56;57.21;101262.16;4846570;29;20072;-91
2021/06/29 05:08:41;;;;;;;10.20;5.43;;;;;;;22.58;57.16;101268.19;4846626;29;20557;-90
2021/06/29 05:11:06;;;;;;;10.48;5.40;;;;;;;22.51;57.61;101269.25;4831069;29;20068;-90
2021/06/29 05:13:31;;;;;;;11.50;5.38;;;;;;;22.52;57.27;101260.50;4846194;29;20068;-89
2021/06/29 05:15:57;;;;;;;14.32;5.55;;;;;;;22.52;57.05;101258.72;4831336;29;20048;-90
2021/06/29 05:25:10;;;;;;;18.20;9.40;;;;;;;22.39;56.65;101258.16;4862973;29;20500;-91
2021/06/29 05:27:46;;;;;;;19.92;9.93;;;;;;;22.38;56.52;101261.69;4830603;29;20038;-89
2021/06/29 05:30:12;;;;;;;20.35;10.25;;;;;;;22.37;56.14;101259.94;4830628;29;20034;-91
2021/06/29 05:32:37;;;;;;;19.25;9.80;;;;;;;22.38;56.36;101264.31;4846067;29;20033;-90
2021/06/29 05:35:04;;;;;;;26.67;10.02;;;;;;;22.36;56.56;101262.59;4830555;29;20048;-90
2021/06/29 05:37:29;;;;;;;18.08;9.65;;;;;;;22.37;56.42;101257.31;4846060;29;20046;-90
2021/06/29 05:39:55;;;;;;;21.45;9.88;;;;;;;22.41;56.13;101259.84;4845444;29;20507;-89
2021/06/29 05:42:20;;;;;;;17.15;9.27;;;;;;;22.43;55.90;101264.19;4846069;29;20044;-90
2021/06/29 05:44:46;;;;;;;18.33;8.90;;;;;;;22.41;56.20;101265.97;4830856;29;20041;-89
2021/06/29 06:56:40;;;;;;;17.08;7.50;;;;;;;22.42;56.28;101304.41;4583262;23;20055;-91
2021/06/29 06:59:14;;;;;;;14.57;7.20;;;;;;;22.47;55.72;101304.31;4887756;29;20496;-91
2021/06/29 07:01:41;;;;;;;14.85;7.32;;;;;;;22.47;56.09;101301.69;4887479;29;20113;-91
2021/06/29 07:04:09;;;;;;;11.80;7.63;;;;;;;22.51;55.81;101309.44;4886889;29;20088;-93
2021/06/29 07:06:42;;;;;;;14.52;8.05;;;;;;;22.47;56.13;101302.56;4872347;29;20036;-89
2021/06/29 07:09:08;;;;;;;14.48;8.02;;;;;;;22.47;56.16;101307.81;4888334;29;20033;-89
2021/06/29 07:11:36;;;;;;;16.15;8.00;;;;;;;22.48;56.02;101306.91;4903096;29;20033;-91
2021/06/29 07:14:04;;;;;;;15.43;7.88;;;;;;;22.50;56.19;101305.09;4871972;29;20487;-90
2021/06/29 07:16:30;;;;;;;12.35;8.23;;;;;;;22.50;56.07;101314.75;4902476;29;20028;-89
2021/06/29 07:19:00;;;;;;;17.60;8.55;;;;;;;22.51;56.13;101317.31;4870650;29;20052;-88
2021/06/29 07:21:28;;;;;;;13.93;7.97;;;;;;;22.53;56.47;101312.03;4886566;29;20043;-89
2021/06/29 07:23:54;;;;;;;16.10;8.57;;;;;;;22.54;56.30;101314.63;4886631;29;20035;-87
2021/06/29 07:26:21;;;;;;;17.00;9.20;;;;;;;22.55;56.11;101315.50;4870841;29;20511;-89
2021/06/29 07:28:47;;;;;;;17.17;8.93;;;;;;;22.57;56.07;101325.03;4886299;29;20444;-89
2021/06/29 07:31:14;;;;;;;17.55;9.13;;;;;;;22.58;56.39;101320.66;4890931;23;20147;-89
2021/06/29 07:33:40;;;;;;;18.50;9.20;;;;;;;22.58;56.47;101318.03;4883305;29;20044;-90
2021/06/29 07:36:06;;;;;;;16.58;8.63;;;;;;;22.58;56.51;101312.78;4867945;29;20037;-89
2021/06/29 07:38:31;;;;;;;12.70;7.90;;;;;;;22.56;56.73;101310.22;4883130;29;20036;-90
2021/06/29 07:40:57;;;;;;;16.27;8.13;;;;;;;22.60;56.71;101310.97;4883292;29;20041;-89
2021/06/29 07:43:25;;;;;;;14.45;7.82;;;;;;;22.65;56.22;101317.00;4867900;29;20180;-89
2021/06/29 07:45:50;;;;;;;13.52;7.90;;;;;;;22.62;56.58;101313.59;4852563;29;20071;-89
2021/06/29 07:48:16;;;;;;;14.32;7.65;;;;;;;22.60;56.44;101313.59;4867558;29;20128;-90
2021/06/29 07:50:41;;;;;;;15.57;8.25;;;;;;;22.61;56.76;101323.22;4846818;29;20439;-90
2021/06/29 07:53:08;;;;;;;14.93;8.15;;;;;;;22.61;56.43;101311.88;4835165;29;20521;-90
2021/06/29 07:55:53;;;;;;;14.10;7.40;;;;;;;22.65;56.50;101322.25;4849799;29;20033;-90
2021/06/29 08:01:43;;;;;;;14.15;7.75;;;;;;;22.73;56.45;101314.19;4866481;29;20072;-89
2021/06/29 08:04:09;;;;;;;15.52;7.60;;;;;;;22.71;56.35;101311.63;4864837;29;20045;-90
2021/06/29 08:06:34;;;;;;;11.38;7.30;;;;;;;22.71;56.62;101308.13;4850813;29;20499;-89
2021/06/29 08:12:22;;;;;;;13.07;7.03;;;;;;;22.69;56.36;101304.66;4872428;29;20089;-88
2021/06/29 08:14:54;;;;;;;12.93;6.80;;;;;;;22.68;56.51;101303.81;4853687;29;20034;-91
2021/06/29 08:17:36;;;;;;;14.63;6.47;;;;;;;22.68;56.37;101309.06;4854795;29;20065;-88
2021/06/29 08:26:47;;;;;;;13.88;6.80;;;;;;;22.73;56.19;101301.97;4813521;29;20053;-91
2021/06/29 08:29:13;;;;;;;11.23;6.10;;;;;;;22.76;56.46;101307.13;4849238;29;20038;-91
2021/06/29 08:31:44;;;;;;;11.38;6.45;;;;;;;22.79;56.59;101303.56;4854305;29;20119;-90
2021/06/29 08:37:35;;;;;;;13.10;6.70;;;;;;;22.72;56.43;101315.97;4870413;29;20080;-90
2021/06/29 08:40:01;;;;;;;9.75;5.78;;;;;;;22.75;56.91;101317.63;4869404;29;20041;-88
2021/06/29 08:42:29;;;;;;;10.75;6.40;;;;;;;22.75;56.50;101318.50;4857811;29;20046;-88
2021/06/29 08:44:55;;;;;;;11.77;6.82;;;;;;;22.74;56.85;101311.53;4878769;29;20034;-89
2021/06/29 08:47:20;;;;;;;12.07;6.55;;;;;;;22.74;56.34;101301.03;4867535;29;20053;-88
2021/06/29 08:49:46;;;;;;;9.98;6.35;;;;;;;22.78;56.32;101313.19;4879079;29;20048;-90
2021/06/29 08:52:11;;;;;;;14.25;6.68;;;;;;;22.78;56.22;101300.06;4871212;29;20124;-87
2021/06/29 08:54:38;;;;;;;11.38;6.75;;;;;;;22.76;56.54;101301.88;4853019;29;20042;-87
2021/06/29 08:57:04;;;;;;;11.70;7.38;;;;;;;22.77;56.35;101292.22;4870391;29;20045;-88
2021/06/29 08:59:29;;;;;;;12.20;7.07;;;;;;;22.77;56.29;101298.34;4854894;29;20136;-87
2021/06/29 09:01:58;;;;;;;14.45;8.18;;;;;;;22.82;56.56;101300.00;4868731;29;20080;-90
2021/06/29 09:04:44;;;;;;;13.98;8.30;;;;;;;22.82;56.20;101298.25;4869968;29;20037;-89
2021/06/29 09:07:18;;;;;;;13.90;8.60;;;;;;;22.79;56.69;101306.19;4868338;29;20044;-87
2021/06/29 09:10:16;;;;;;;;;;;;;;;;;;;;;
2021/06/29 09:12:46;;;;;;;17.75;9.65;;;;;;;22.83;56.41;101291.22;4869536;29;20128;-89
2021/06/29 09:15:27;;;;;;;16.90;9.43;;;;;;;22.84;56.55;101292.94;4864969;29;20565;-91
2021/06/29 09:17:55;;;;;;;16.08;9.75;;;;;;;22.85;56.39;101298.16;4864659;29;20046;-87
2021/06/29 09:20:57;;;;;;;14.23;9.55;;;;;;;22.87;56.30;101292.88;4863374;29;20128;-89
2021/06/29 09:23:39;;;;;;;15.35;9.43;;;;;;;22.86;56.27;101296.41;4849464;29;20034;-89
2021/06/29 09:26:23;;;;;;;17.10;9.32;;;;;;;22.84;56.46;101306.91;4863264;29;20091;-88
2021/06/29 09:29:02;;;;;;;14.65;9.90;;;;;;;22.84;56.40;101317.41;4863646;29;20057;-89
2021/06/29 09:31:33;;;;;;;15.85;9.20;;;;;;;22.82;56.62;101316.63;4861017;29;20053;-91
2021/06/29 09:34:07;;;;;;;14.38;9.55;;;;;;;22.83;56.34;101315.72;4862870;29;20041;-88
2021/06/29 09:36:35;;;;;;;16.40;10.25;;;;;;;22.84;56.44;101314.78;4863366;29;20493;-89
2021/06/29 09:39:07;;;;;;;13.38;9.30;;;;;;;22.87;56.22;101321.75;4863947;29;20052;-89
2021/06/29 09:41:35;;;;;;;14.90;8.98;;;;;;;22.86;56.17;101325.25;4862895;29;20561;-88
2021/06/29 09:44:11;;;;;;;15.18;9.10;;;;;;;22.80;56.38;101326.28;4863612;29;20045;-87
2021/06/29 09:46:39;;;;;;;14.07;8.85;;;;;;;22.84;56.29;101325.28;4861746;29;20401;-90
2021/06/29 09:49:12;;;;;;;12.73;9.15;;;;;;;22.86;56.04;101327.88;4864256;29;20041;-89
2021/06/29 09:51:42;;;;;;;12.02;8.35;;;;;;;22.86;56.02;101322.63;4863210;29;20037;-89
2021/06/29 09:54:10;;;;;;;13.77;8.60;;;;;;;22.86;56.17;101320.00;4862419;29;20045;-92
2021/06/29 09:56:42;;;;;;;12.13;8.75;;;;;;;22.80;56.47;101321.03;4863885;29;20041;-89
2021/06/29 09:59:12;;;;;;;13.32;8.25;;;;;;;22.79;56.30;101328.03;4846994;29;20033;-88
2021/06/29 10:01:37;;;;;;;14.65;9.10;;;;;;;22.82;56.49;101331.47;4864727;29;20038;-87
2021/06/29 10:04:04;;;;;;;13.25;8.48;;;;;;;22.83;56.02;101330.59;4850353;29;20033;-89
2021/06/29 10:06:34;;;;;;;13.35;8.63;;;;;;;22.83;56.07;101333.22;4852566;29;20042;-90
2021/06/29 10:09:08;;;;;;;14.77;8.68;;;;;;;22.86;55.88;101330.50;4868139;29;20125;-89
2021/06/29 10:11:52;;;;;;;14.13;8.43;;;;;;;22.84;56.01;101330.53;4865569;29;20037;-89
2021/06/29 10:14:18;;;;;;;12.50;7.95;;;;;;;22.80;55.95;101336.78;4865333;29;20440;-89
2021/06/29 10:16:51;;;;;;;12.50;7.35;;;;;;;22.75;56.28;101336.88;4866114;29;20048;-88
2021/06/29 10:22:01;;;;;;;12.20;7.90;;;;;;;22.73;56.12;101343.06;4871353;29;20038;-89
2021/06/29 10:24:30;;;;;;;12.00;7.88;;;;;;;22.73;56.07;101353.53;4871134;29;20056;-89
2021/06/29 10:27:00;;;;;;;11.70;7.72;;;;;;;22.69;56.38;101347.53;4866251;29;20385;-89
2021/06/29 10:29:29;;;;;;;12.13;7.53;;;;;;;22.69;56.36;101342.28;4850032;29;20408;-89
2021/06/29 10:31:59;;;;;;;11.48;7.18;;;;;;;22.68;56.33;101337.91;4862848;29;20125;-89
2021/06/29 10:34:25;;;;;;;13.88;7.63;;;;;;;22.72;56.13;101341.34;4863016;29;20167;-89
2021/06/29 10:36:57;;;;;;;11.93;7.32;;;;;;;22.69;56.16;101338.75;4848324;29;20037;-89
2021/06/29 10:39:25;;;;;;;12.25;7.05;;;;;;;22.73;56.12;101336.06;4864677;29;20105;-89
2021/06/29 10:42:01;;;;;;;12.90;7.13;;;;;;;22.71;56.20;101339.59;4865996;29;20033;-88
2021/06/29 10:44:27;;;;;;;13.30;7.03;;;;;;;22.70;56.47;101335.25;4848896;29;20071;-89
2021/06/29 10:46:55;;;;;;;11.98;6.72;;;;;;;22.73;56.12;101333.44;4862592;29;20042;-89
2021/06/29 10:49:28;;;;;;;10.85;6.30;;;;;;;22.76;55.73;101330.72;4862048;29;20036;-89
2021/06/29 10:51:57;;;;;;;10.70;6.32;;;;;;;22.80;55.60;101321.91;4861353;29;20102;-90
2021/06/29 10:54:34;;;;;;;11.90;6.68;;;;;;;22.82;55.59;101331.47;4861854;29;20034;-90
2021/06/29 10:57:06;;;;;;;11.65;6.07;;;;;;;22.77;55.60;101321.94;4860405;29;20037;-89
2021/06/29 10:59:33;;;;;;;12.90;6.35;;;;;;;22.78;55.75;101331.56;4862106;29;20132;-89
2021/06/29 11:01:58;;;;;;;12.73;5.70;;;;;;;22.79;55.85;101327.16;4830781;29;20121;-89
2021/06/29 11:04:50;;;;;;;11.13;5.63;;;;;;;22.84;55.64;101319.19;4845468;29;20481;-88
2021/06/29 11:07:42;;;;;;;9.80;5.82;;;;;;;22.88;55.53;101321.69;4862655;29;20068;-93
2021/06/29 11:10:10;;;;;;;9.85;5.65;;;;;;;22.89;55.61;101322.59;4864569;29;20065;-87
2021/06/29 11:12:42;;;;;;;11.77;6.38;;;;;;;22.86;55.55;101328.75;4873109;29;20074;-88
2021/06/29 11:15:09;;;;;;;9.83;5.73;;;;;;;22.88;55.49;101323.47;4882274;29;20025;-92
2021/06/29 11:17:51;;;;;;;9.63;5.88;;;;;;;22.85;55.40;101321.78;4865180;29;20294;-91
2021/06/29 11:20:18;;;;;;;9.52;5.60;;;;;;;22.88;55.25;101328.72;4864386;29;20034;-90
2021/06/29 11:22:54;;;;;;;8.48;5.05;;;;;;;22.89;55.09;101323.44;4817486;29;20090;-92
2021/06/29 11:25:50;;;;;;;7.85;5.20;;;;;;;22.84;55.30;101325.28;4866699;29;20045;-91
2021/06/29 11:28:38;;;;;;;9.43;5.10;;;;;;;22.80;55.54;101326.28;4867309;29;20045;-91
2021/06/29 11:31:10;;;;;;;6.78;5.00;;;;;;;22.83;55.38;101322.72;4852350;29;20098;-90
2021/06/29 11:33:37;;;;;;;7.72;5.00;;;;;;;22.83;55.59;101323.56;4867330;29;20048;-91
2021/06/29 11:36:26;;;;;;;5.80;4.47;;;;;;;22.82;55.38;101320.97;4868426;29;20046;-91
2021/06/29 11:38:54;;;;;;;7.32;5.18;;;;;;;22.80;55.77;101321.03;4866078;29;20038;-91
2021/06/29 11:41:32;;;;;;;9.18;5.13;;;;;;;22.82;55.43;101319.25;4867781;29;20128;-90
2021/06/29 11:43:59;;;;;;;6.82;4.95;;;;;;;22.79;55.61;101314.06;4870440;29;20072;-89
2021/06/29 11:46:53;;;;;;;6.90;4.95;;;;;;;22.79;55.42;101314.91;4871582;29;20041;-90
2021/06/29 11:49:37;;;;;;;7.88;5.03;;;;;;;22.82;55.64;101320.97;4872920;29;20084;-89
2021/06/29 11:52:12;;;;;;;7.25;4.97;;;;;;;22.82;55.80;101323.59;4853563;29;20091;-90
2021/06/29 11:54:49;;;;;;;8.20;5.10;;;;;;;22.80;55.47;101328.91;4868251;29;20044;-91
2021/06/29 11:57:54;;;;;;;8.55;5.15;;;;;;;22.74;55.46;101321.19;4868108;29;20042;-91
2021/06/29 12:00:26;;;;;;;6.10;4.25;;;;;;;22.73;56.03;101316.81;4851941;29;20141;-91
2021/06/29 12:02:55;;;;;;;6.63;4.60;;;;;;;22.72;55.71;101326.44;4867249;29;20044;-92
2021/06/29 12:05:26;;;;;;;6.30;4.20;;;;;;;22.72;55.36;101325.59;4866686;29;20489;-90
2021/06/29 12:07:56;;;;;;;6.95;4.75;;;;;;;22.70;55.53;101330.03;4866965;29;20073;-92
2021/06/29 12:10:39;;;;;;;5.00;3.97;;;;;;;22.71;55.79;101323.84;4851661;29;20046;-91
2021/06/29 12:13:10;;;;;;;5.00;4.03;;;;;;;22.70;55.76;101322.16;4867976;29;20090;-90
2021/06/29 12:15:42;;;;;;;5.40;4.10;;;;;;;22.65;55.79;101324.88;4866527;29;20132;-91
2021/06/29 12:18:14;;;;;;;4.93;3.90;;;;;;;22.66;55.87;101317.88;4865290;29;20146;-90
2021/06/29 12:20:40;;;;;;;5.55;4.25;;;;;;;22.71;55.52;101331.72;4864816;29;20049;-92
2021/06/29 12:23:08;;;;;;;5.43;4.18;;;;;;;22.72;55.68;101328.22;4848615;29;20041;-90
2021/06/29 12:25:40;;;;;;;5.22;4.10;;;;;;;22.71;55.43;101316.88;4866483;29;20486;-92
2021/06/29 12:28:22;;;;;;;5.28;3.95;;;;;;;22.71;55.63;101321.22;4865057;29;20029;-90
2021/06/29 12:30:59;;;;;;;5.70;4.03;;;;;;;22.68;55.88;101326.56;4850747;29;20040;-89
2021/06/29 12:33:30;;;;;;;4.82;4.07;;;;;;;22.66;55.66;101323.97;4848300;29;20068;-91
2021/06/29 12:36:07;;;;;;;5.22;4.20;;;;;;;22.65;55.79;101319.63;4864202;29;20041;-92
2021/06/29 12:38:44;;;;;;;4.43;3.72;;;;;;;22.65;55.79;101311.75;4863891;29;20400;-90
2021/06/29 12:41:20;;;;;;;6.00;3.95;;;;;;;22.74;55.70;101311.53;4864523;29;20037;-91
2021/06/29 12:43:47;;;;;;;4.32;3.90;;;;;;;22.74;55.65;101319.41;4863799;29;20045;-90
2021/06/29 12:46:23;;;;;;;5.22;3.65;;;;;;;22.75;55.35;101322.88;4863803;29;20037;-91
2021/06/29 12:49:07;;;;;;;5.03;3.78;;;;;;;22.75;55.74;101329.00;4863758;29;20132;-90
2021/06/29 12:51:39;;;;;;;3.80;3.25;;;;;;;22.74;55.72;101322.03;4863349;29;20401;-90
2021/06/29 12:54:09;;;;;;;6.40;3.92;;;;;;;22.74;55.39;101319.41;4863051;29;20044;-90
2021/06/29 12:56:52;;;;;;;5.85;4.03;;;;;;;22.77;55.54;101321.09;4861911;29;20404;-89
2021/06/29 12:59:21;;;;;;;5.07;4.03;;;;;;;22.76;55.43;101328.09;4863033;29;20186;-91
2021/06/29 13:01:52;;;;;;;4.75;3.65;;;;;;;22.78;55.18;101325.47;4862646;29;20041;-90
2021/06/29 13:04:21;;;;;;;5.10;3.47;;;;;;;22.77;55.60;101328.97;4848974;29;20046;-91
2021/06/29 13:06:47;;;;;;;4.97;3.80;;;;;;;22.78;55.42;101333.34;4863692;29;20041;-90
2021/06/29 13:09:15;;;;;;;5.47;4.15;;;;;;;22.73;55.41;101328.19;4863419;29;20056;-90
2021/06/29 13:12:07;;;;;;;5.70;3.67;;;;;;;22.73;55.88;101329.94;4863570;29;20485;-92
2021/06/29 13:14:33;;;;;;;4.32;3.30;;;;;;;22.74;55.58;101334.31;4864694;29;20137;-90
2021/06/29 13:17:05;;;;;;;4.85;3.53;;;;;;;22.71;55.15;101323.84;4863475;29;20037;-91
2021/06/29 13:19:32;;;;;;;4.15;3.75;;;;;;;22.73;55.61;101330.81;4862426;29;20470;-90
2021/06/29 13:22:09;;;;;;;4.78;3.63;;;;;;;22.70;55.68;101319.53;4862673;29;20042;-89
2021/06/29 13:24:49;;;;;;;4.30;3.40;;;;;;;22.70;55.45;101330.03;4848485;29;20063;-90
2021/06/29 13:27:32;;;;;;;5.13;3.67;;;;;;;22.70;55.68;101327.41;4862931;29;20140;-90
2021/06/29 13:30:01;;;;;;;4.63;4.10;;;;;;;22.65;55.79;101327.50;4847935;29;20049;-91
2021/06/29 13:32:27;;;;;;;5.07;3.80;;;;;;;22.67;55.87;101328.34;4858209;29;20108;-89
2021/06/29 13:35:11;;;;;;;4.45;3.88;;;;;;;22.68;55.69;101327.41;4862129;29;20053;-90
2021/06/29 13:37:46;;;;;;;5.22;3.40;;;;;;;22.68;55.57;101322.16;4868332;29;20036;-89
2021/06/29 13:40:16;;;;;;;5.13;3.42;;;;;;;22.67;55.88;101333.56;4873044;29;20041;-91
2021/06/29 13:42:41;;;;;;;4.80;3.28;;;;;;;22.70;55.81;101330.03;4866363;29;20037;-91
2021/06/29 13:45:07;;;;;;;4.45;3.53;;;;;;;22.68;55.67;101334.44;4854752;29;20037;-91
2021/06/29 13:47:46;;;;;;;4.93;3.40;;;;;;;22.67;55.42;101335.31;4863813;29;20037;-90
2021/06/29 13:50:12;;;;;;;4.32;3.63;;;;;;;22.68;55.75;101324.78;4864441;29;20044;-92
2021/06/29 13:53:02;;;;;;;3.92;3.38;;;;;;;22.69;55.63;101323.91;4850757;29;20038;-91
2021/06/29 13:55:37;;;;;;;4.75;3.78;;;;;;;22.74;55.28;101321.19;4869368;29;20082;-92
2021/06/29 13:58:20;;;;;;;5.05;3.80;;;;;;;22.75;55.17;101315.88;4870316;29;20046;-91
2021/06/29 14:00:47;;;;;;;4.70;3.40;;;;;;;22.75;54.96;101318.50;4863260;29;20140;-89
2021/06/29 14:03:24;;;;;;;3.85;3.33;;;;;;;22.74;55.12;101318.56;4863467;29;20037;-91
2021/06/29 14:05:51;;;;;;;3.28;2.97;;;;;;;22.71;55.18;101316.88;4861467;29;20124;-90
2021/06/29 14:08:24;;;;;;;3.92;3.45;;;;;;;22.74;55.49;101324.66;4846946;29;20045;-91
2021/06/29 14:11:02;;;;;;;3.40;3.10;;;;;;;22.71;55.25;101321.22;4846486;29;20485;-91
2021/06/29 14:13:38;;;;;;;5.97;3.45;;;;;;;22.75;55.07;101315.88;4862021;29;20077;-91
2021/06/29 14:16:10;;;;;;;3.75;3.35;;;;;;;22.78;55.24;101313.19;4846013;29;20497;-91
2021/06/29 14:18:37;;;;;;;3.80;3.17;;;;;;;22.79;55.04;101309.66;4861917;29;20423;-90
2021/06/29 14:21:12;;;;;;;3.53;3.05;;;;;;;22.74;54.86;101313.31;4831732;29;20049;-92
2021/06/29 14:23:38;;;;;;;4.25;3.30;;;;;;;22.72;55.29;101308.09;4861180;29;20038;-91
2021/06/29 14:26:04;;;;;;;4.68;3.58;;;;;;;22.76;55.21;101322.00;4861074;29;20040;-92
2021/06/29 14:28:31;;;;;;;5.40;3.63;;;;;;;22.71;54.84;101321.22;4860974;29;20037;-92
2021/06/29 14:30:57;;;;;;;3.92;3.08;;;;;;;22.68;55.19;101321.31;4861970;29;20037;-92